sensor_id;sensor_type;location;lat;lon;timestamp;pressure;altitude;pressure_sealevel;temperature;humidity
71059;BME280;70265;47.576;19.270;2023-05-29T00:00:33;98875.31;;;14.80;90.31
71059;BME280;70265;47.576;19.270;2023-05-29T00:01:34;98870.19;;;14.78;89.94
71059;BME280;70265;47.576;19.270;2023-05-29T00:02:38;98880.75;;;14.78;90.23
71059;BME280;70265;47.576;19.270;2023-05-29T00:03:40;98873.19;;;14.75;91.24
71059;BME280;70265;47.576;19.270;2023-05-29T00:04:44;98883.13;;;14.73;91.28
71059;BME280;70265;47.576;19.270;2023-05-29T00:05:45;98875.34;;;14.71;92.25
71059;BME280;70265;47.576;19.270;2023-05-29T00:06:49;98877.38;;;14.69;92.76
71059;BME280;70265;47.576;19.270;2023-05-29T00:07:51;98885.97;;;14.63;93.47
71059;BME280;70265;47.576;19.270;2023-05-29T00:08:55;98876.31;;;14.56;94.26
71059;BME280;70265;47.576;19.270;2023-05-29T00:09:56;98870.00;;;14.42;95.91
71059;BME280;70265;47.576;19.270;2023-05-29T00:11:00;98872.97;;;14.39;95.80
71059;BME280;70265;47.576;19.270;2023-05-29T00:12:04;98875.75;;;14.46;94.60
71059;BME280;70265;47.576;19.270;2023-05-29T00:13:08;98875.75;;;14.46;94.37
71059;BME280;70265;47.576;19.270;2023-05-29T00:14:09;98879.19;;;14.46;93.95
71059;BME280;70265;47.576;19.270;2023-05-29T00:15:14;98875.28;;;14.42;94.72
71059;BME280;70265;47.576;19.270;2023-05-29T00:16:15;98875.59;;;14.39;95.22
71059;BME280;70265;47.576;19.270;2023-05-29T00:17:19;98873.31;;;14.36;95.53
71059;BME280;70265;47.576;19.270;2023-05-29T00:18:21;98879.63;;;14.35;95.16
71059;BME280;70265;47.576;19.270;2023-05-29T00:19:24;98880.59;;;14.34;95.37
71059;BME280;70265;47.576;19.270;2023-05-29T00:20:25;98874.66;;;14.32;95.23
71059;BME280;70265;47.576;19.270;2023-05-29T00:21:29;98873.19;;;14.29;95.68
71059;BME280;70265;47.576;19.270;2023-05-29T00:22:31;98879.47;;;14.28;95.55
71059;BME280;70265;47.576;19.270;2023-05-29T00:23:37;98870.38;;;14.31;95.03
71059;BME280;70265;47.576;19.270;2023-05-29T00:24:38;98877.34;;;14.24;95.14
71059;BME280;70265;47.576;19.270;2023-05-29T00:25:42;98877.00;;;14.27;95.03
71059;BME280;70265;47.576;19.270;2023-05-29T00:26:43;98876.47;;;14.32;93.68
71059;BME280;70265;47.576;19.270;2023-05-29T00:27:49;98874.66;;;14.32;93.38
71059;BME280;70265;47.576;19.270;2023-05-29T00:28:50;98863.78;;;14.35;92.66
71059;BME280;70265;47.576;19.270;2023-05-29T00:29:54;98875.59;;;14.39;91.50
71059;BME280;70265;47.576;19.270;2023-05-29T00:30:55;98878.91;;;14.41;91.62
71059;BME280;70265;47.576;19.270;2023-05-29T00:31:59;98875.59;;;14.39;91.73
71059;BME280;70265;47.576;19.270;2023-05-29T00:33:00;98875.59;;;14.39;91.81
71059;BME280;70265;47.576;19.270;2023-05-29T00:34:04;98876.75;;;14.45;89.57
71059;BME280;70265;47.576;19.270;2023-05-29T00:35:07;98874.56;;;14.48;90.02
71059;BME280;70265;47.576;19.270;2023-05-29T00:36:11;98879.84;;;14.48;90.32
71059;BME280;70265;47.576;19.270;2023-05-29T00:37:12;98881.31;;;14.51;89.59
71059;BME280;70265;47.576;19.270;2023-05-29T00:38:16;98874.84;;;14.53;89.15
71059;BME280;70265;47.576;19.270;2023-05-29T00:39:17;98877.13;;;14.56;88.80
71059;BME280;70265;47.576;19.270;2023-05-29T00:40:21;98874.16;;;14.59;88.04
71059;BME280;70265;47.576;19.270;2023-05-29T00:41:22;98870.13;;;14.63;87.51
71059;BME280;70265;47.576;19.270;2023-05-29T00:42:25;98865.53;;;14.65;87.39
71059;BME280;70265;47.576;19.270;2023-05-29T00:43:29;98866.81;;;14.69;86.97
71059;BME280;70265;47.576;19.270;2023-05-29T00:44:33;98868.06;;;14.73;86.62
71059;BME280;70265;47.576;19.270;2023-05-29T00:45:34;98875.81;;;14.75;86.13
71059;BME280;70265;47.576;19.270;2023-05-29T00:46:38;98867.72;;;14.76;85.66
71059;BME280;70265;47.576;19.270;2023-05-29T00:47:39;98862.88;;;14.80;85.49
71059;BME280;70265;47.576;19.270;2023-05-29T00:48:41;98870.66;;;14.82;85.44
71059;BME280;70265;47.576;19.270;2023-05-29T00:49:46;98862.56;;;14.83;85.04
71059;BME280;70265;47.576;19.270;2023-05-29T00:50:47;98865.00;;;14.85;84.99
71059;BME280;70265;47.576;19.270;2023-05-29T00:51:52;98863.56;;;14.82;85.30
71059;BME280;70265;47.576;19.270;2023-05-29T00:52:54;98865.25;;;14.75;86.12
71059;BME280;70265;47.576;19.270;2023-05-29T00:53:58;98867.59;;;14.70;86.91
71059;BME280;70265;47.576;19.270;2023-05-29T00:54:59;98865.78;;;14.70;87.36
71059;BME280;70265;47.576;19.270;2023-05-29T00:56:05;98869.91;;;14.73;86.79
71059;BME280;70265;47.576;19.270;2023-05-29T00:57:07;98866.63;;;14.71;87.38
71059;BME280;70265;47.576;19.270;2023-05-29T00:58:11;98861.34;;;14.71;87.27
71059;BME280;70265;47.576;19.270;2023-05-29T00:59:15;98865.53;;;14.65;88.27
71059;BME280;70265;47.576;19.270;2023-05-29T01:00:22;98868.78;;;14.67;87.18
71059;BME280;70265;47.576;19.270;2023-05-29T01:01:24;98863.50;;;14.67;86.56
71059;BME280;70265;47.576;19.270;2023-05-29T01:02:29;98865.31;;;14.67;87.10
71059;BME280;70265;47.576;19.270;2023-05-29T01:03:30;98874.06;;;14.67;86.43
71059;BME280;70265;47.576;19.270;2023-05-29T01:04:36;98870.06;;;14.71;85.26
71059;BME280;70265;47.576;19.270;2023-05-29T01:05:38;98857.34;;;14.75;85.49
71059;BME280;70265;47.576;19.270;2023-05-29T01:06:42;98866.09;;;14.75;85.25
71059;BME280;70265;47.576;19.270;2023-05-29T01:07:44;98865.72;;;14.78;83.70
71059;BME280;70265;47.576;19.270;2023-05-29T01:08:49;98863.72;;;14.81;84.33
71059;BME280;70265;47.576;19.270;2023-05-29T01:09:50;98866.00;;;14.84;83.71
71059;BME280;70265;47.576;19.270;2023-05-29T01:10:59;98862.38;;;14.85;83.83
71059;BME280;70265;47.576;19.270;2023-05-29T01:12:12;98863.03;;;14.87;83.19
71059;BME280;70265;47.576;19.270;2023-05-29T01:13:21;98857.38;;;14.90;83.05
71059;BME280;70265;47.576;19.270;2023-05-29T01:14:31;98865.94;;;14.92;82.58
71059;BME280;70265;47.576;19.270;2023-05-29T01:15:43;98862.28;;;14.93;81.89
71059;BME280;70265;47.576;19.270;2023-05-29T01:16:51;98864.28;;;14.91;82.22
71059;BME280;70265;47.576;19.270;2023-05-29T01:18:14;98866.28;;;14.89;81.67
71059;BME280;70265;47.576;19.270;2023-05-29T01:19:37;98864.19;;;14.84;82.08
71059;BME280;70265;47.576;19.270;2023-05-29T01:20:52;98858.44;;;14.81;82.54
71059;BME280;70265;47.576;19.270;2023-05-29T01:22:00;98858.63;;;14.79;82.80
71059;BME280;70265;47.576;19.270;2023-05-29T01:23:26;98857.50;;;14.73;82.96
71059;BME280;70265;47.576;19.270;2023-05-29T01:24:36;98858.34;;;14.74;83.15
71059;BME280;70265;47.576;19.270;2023-05-29T01:25:51;98858.59;;;14.64;83.90
71059;BME280;70265;47.576;19.270;2023-05-29T01:27:01;98861.75;;;14.60;84.61
71059;BME280;70265;47.576;19.270;2023-05-29T01:28:07;98860.66;;;14.54;84.56
71059;BME280;70265;47.576;19.270;2023-05-29T01:29:13;98853.91;;;14.52;85.19
71059;BME280;70265;47.576;19.270;2023-05-29T01:30:18;98858.72;;;14.48;85.43
71059;BME280;70265;47.576;19.270;2023-05-29T01:31:23;98856.63;;;14.44;85.36
71059;BME280;70265;47.576;19.270;2023-05-29T01:32:29;98849.06;;;14.41;85.56
71059;BME280;70265;47.576;19.270;2023-05-29T01:33:32;98848.22;;;14.40;85.73
71059;BME280;70265;47.576;19.270;2023-05-29T01:34:36;98862.75;;;14.36;86.07
71059;BME280;70265;47.576;19.270;2023-05-29T01:35:37;98853.56;;;14.32;86.36
71059;BME280;70265;47.576;19.270;2023-05-29T01:36:41;98851.25;;;14.29;86.32
71059;BME280;70265;47.576;19.270;2023-05-29T01:37:42;98859.16;;;14.29;86.30
71059;BME280;70265;47.576;19.270;2023-05-29T01:38:46;98853.41;;;14.25;86.35
71059;BME280;70265;47.576;19.270;2023-05-29T01:39:47;98862.03;;;14.19;86.66
71059;BME280;70265;47.576;19.270;2023-05-29T01:40:51;98847.75;;;14.14;86.85
71059;BME280;70265;47.576;19.270;2023-05-29T01:41:53;98858.09;;;14.15;86.80
71059;BME280;70265;47.576;19.270;2023-05-29T01:43:01;98854.47;;;14.16;86.48
71059;BME280;70265;47.576;19.270;2023-05-29T01:44:06;98852.19;;;14.13;86.92
71059;BME280;70265;47.576;19.270;2023-05-29T01:45:11;98857.31;;;14.15;87.07
71059;BME280;70265;47.576;19.270;2023-05-29T01:46:14;98853.53;;;14.09;86.73
71059;BME280;70265;47.576;19.270;2023-05-29T01:47:18;98851.09;;;14.08;86.97
71059;BME280;70265;47.576;19.270;2023-05-29T01:48:19;98853.88;;;14.06;87.25
71059;BME280;70265;47.576;19.270;2023-05-29T01:49:23;98858.34;;;14.06;87.12
71059;BME280;70265;47.576;19.270;2023-05-29T01:50:25;98852.59;;;14.02;87.14
71059;BME280;70265;47.576;19.270;2023-05-29T01:51:29;98856.25;;;14.01;87.46
71059;BME280;70265;47.576;19.270;2023-05-29T01:52:32;98855.06;;;14.04;87.35
71059;BME280;70265;47.576;19.270;2023-05-29T01:53:36;98859.16;;;14.06;87.51
71059;BME280;70265;47.576;19.270;2023-05-29T01:54:37;98853.16;;;13.90;88.21
71059;BME280;70265;47.576;19.270;2023-05-29T01:55:41;98850.19;;;13.93;87.73
71059;BME280;70265;47.576;19.270;2023-05-29T01:56:42;98857.44;;;13.91;88.10
71059;BME280;70265;47.576;19.270;2023-05-29T01:57:46;98847.25;;;13.88;88.04
71059;BME280;70265;47.576;19.270;2023-05-29T01:58:50;98851.22;;;13.84;88.61
71059;BME280;70265;47.576;19.270;2023-05-29T01:59:54;98849.06;;;13.87;88.08
71059;BME280;70265;47.576;19.270;2023-05-29T02:00:56;98858.13;;;13.85;88.47
71059;BME280;70265;47.576;19.270;2023-05-29T02:02:05;98851.38;;;13.82;89.07
71059;BME280;70265;47.576;19.270;2023-05-29T02:03:06;98852.91;;;13.76;89.06
71059;BME280;70265;47.576;19.270;2023-05-29T02:04:10;98850.09;;;13.78;88.95
71059;BME280;70265;47.576;19.270;2023-05-29T02:05:11;98850.09;;;13.78;88.82
71059;BME280;70265;47.576;19.270;2023-05-29T02:06:15;98850.44;;;13.75;89.31
71059;BME280;70265;47.576;19.270;2023-05-29T02:07:16;98847.66;;;13.68;89.64
71059;BME280;70265;47.576;19.270;2023-05-29T02:08:21;98843.56;;;13.66;89.70
71059;BME280;70265;47.576;19.270;2023-05-29T02:09:22;98843.41;;;13.67;89.63
71059;BME280;70265;47.576;19.270;2023-05-29T02:10:26;98844.19;;;13.68;89.60
71059;BME280;70265;47.576;19.270;2023-05-29T02:11:27;98844.75;;;13.63;89.34
71059;BME280;70265;47.576;19.270;2023-05-29T02:12:31;98840.44;;;13.62;89.60
71059;BME280;70265;47.576;19.270;2023-05-29T02:13:32;98834.34;;;13.62;89.33
71059;BME280;70265;47.576;19.270;2023-05-29T02:14:38;98836.84;;;13.63;89.29
71059;BME280;70265;47.576;19.270;2023-05-29T02:15:41;98837.81;;;13.62;89.14
71059;BME280;70265;47.576;19.270;2023-05-29T02:16:44;98832.91;;;13.59;89.35
71059;BME280;70265;47.576;19.270;2023-05-29T02:17:45;98827.31;;;13.54;89.36
71059;BME280;70265;47.576;19.270;2023-05-29T02:18:49;98829.16;;;13.54;89.60
71059;BME280;70265;47.576;19.270;2023-05-29T02:19:52;98834.22;;;13.55;89.29
71059;BME280;70265;47.576;19.270;2023-05-29T02:20:56;98833.88;;;13.58;88.85
71059;BME280;70265;47.576;19.270;2023-05-29T02:21:57;98828.59;;;13.58;88.84
71059;BME280;70265;47.576;19.270;2023-05-29T02:23:00;98825.00;;;13.59;88.85
71059;BME280;70265;47.576;19.270;2023-05-29T02:24:02;98832.25;;;13.57;89.18
71059;BME280;70265;47.576;19.270;2023-05-29T02:25:06;98827.63;;;13.59;89.04
71059;BME280;70265;47.576;19.270;2023-05-29T02:26:08;98825.63;;;13.61;88.69
71059;BME280;70265;47.576;19.270;2023-05-29T02:27:11;98826.66;;;13.60;89.12
71059;BME280;70265;47.576;19.270;2023-05-29T02:28:12;98829.91;;;13.62;89.01
71059;BME280;70265;47.576;19.270;2023-05-29T02:29:16;98825.47;;;13.63;89.21
71059;BME280;70265;47.576;19.270;2023-05-29T02:30:20;98829.44;;;13.59;89.04
71059;BME280;70265;47.576;19.270;2023-05-29T02:31:24;98828.59;;;13.58;89.07
71059;BME280;70265;47.576;19.270;2023-05-29T02:32:25;98836.50;;;13.58;88.96
71059;BME280;70265;47.576;19.270;2023-05-29T02:33:30;98834.72;;;13.59;89.37
71059;BME280;70265;47.576;19.270;2023-05-29T02:34:31;98838.31;;;13.58;89.46
71059;BME280;70265;47.576;19.270;2023-05-29T02:35:34;98834.72;;;13.59;89.33
71059;BME280;70265;47.576;19.270;2023-05-29T02:36:35;98841.16;;;13.56;89.46
71059;BME280;70265;47.576;19.270;2023-05-29T02:37:39;98835.88;;;13.56;89.08
71059;BME280;70265;47.576;19.270;2023-05-29T02:38:40;98831.44;;;13.57;89.23
71059;BME280;70265;47.576;19.270;2023-05-29T02:39:44;98827.78;;;13.58;88.85
71059;BME280;70265;47.576;19.270;2023-05-29T02:40:45;98828.59;;;13.58;88.88
71059;BME280;70265;47.576;19.270;2023-05-29T02:41:48;98833.72;;;13.60;88.96
71059;BME280;70265;47.576;19.270;2023-05-29T02:42:50;98826.81;;;13.59;89.17
71059;BME280;70265;47.576;19.270;2023-05-29T02:43:54;98830.59;;;13.56;88.96
71059;BME280;70265;47.576;19.270;2023-05-29T02:44:55;98826.31;;;13.55;88.92
71059;BME280;70265;47.576;19.270;2023-05-29T02:46:02;98824.03;;;13.52;89.56
71059;BME280;70265;47.576;19.270;2023-05-29T02:47:03;98828.66;;;13.50;89.48
71059;BME280;70265;47.576;19.270;2023-05-29T02:48:07;98826.34;;;13.47;89.60
71059;BME280;70265;47.576;19.270;2023-05-29T02:49:08;98828.00;;;13.48;89.45
71059;BME280;70265;47.576;19.270;2023-05-29T02:50:12;98820.09;;;13.48;89.43
71059;BME280;70265;47.576;19.270;2023-05-29T02:51:15;98816.16;;;13.44;89.72
71059;BME280;70265;47.576;19.270;2023-05-29T02:52:19;98826.22;;;13.41;89.94
71059;BME280;70265;47.576;19.270;2023-05-29T02:53:20;98823.56;;;13.41;89.47
71059;BME280;70265;47.576;19.270;2023-05-29T02:54:24;98821.97;;;13.40;89.59
71059;BME280;70265;47.576;19.270;2023-05-29T02:55:25;98821.78;;;13.41;89.33
71059;BME280;70265;47.576;19.270;2023-05-29T02:56:29;98822.13;;;13.38;89.42
71059;BME280;70265;47.576;19.270;2023-05-29T02:57:30;98818.50;;;13.39;89.52
71059;BME280;70265;47.576;19.270;2023-05-29T02:58:34;98822.13;;;13.38;89.42
71059;BME280;70265;47.576;19.270;2023-05-29T02:59:36;98824.28;;;13.35;89.74
71059;BME280;70265;47.576;19.270;2023-05-29T03:00:40;98828.22;;;13.39;89.29
71059;BME280;70265;47.576;19.270;2023-05-29T03:01:44;98824.75;;;13.38;89.21
71059;BME280;70265;47.576;19.270;2023-05-29T03:02:48;98825.72;;;13.37;89.22
71059;BME280;70265;47.576;19.270;2023-05-29T03:03:49;98821.63;;;13.35;89.46
71059;BME280;70265;47.576;19.270;2023-05-29T03:04:53;98829.38;;;13.36;89.21
71059;BME280;70265;47.576;19.270;2023-05-29T03:05:57;98827.72;;;13.35;89.14
71059;BME280;70265;47.576;19.270;2023-05-29T03:07:02;98825.44;;;13.32;89.37
71059;BME280;70265;47.576;19.270;2023-05-29T03:08:03;98819.19;;;13.33;89.28
71059;BME280;70265;47.576;19.270;2023-05-29T03:09:07;98823.97;;;13.30;88.95
71059;BME280;70265;47.576;19.270;2023-05-29T03:10:09;98824.81;;;13.30;89.16
71059;BME280;70265;47.576;19.270;2023-05-29T03:11:17;98820.88;;;13.26;89.24
71059;BME280;70265;47.576;19.270;2023-05-29T03:12:18;98826.13;;;13.26;89.22
71059;BME280;70265;47.576;19.270;2023-05-29T03:13:22;98822.31;;;13.29;88.96
71059;BME280;70265;47.576;19.270;2023-05-29T03:14:23;98829.25;;;13.30;88.97
71059;BME280;70265;47.576;19.270;2023-05-29T03:15:27;98818.38;;;13.24;88.59
71059;BME280;70265;47.576;19.270;2023-05-29T03:16:29;98824.13;;;13.28;88.80
71059;BME280;70265;47.576;19.270;2023-05-29T03:17:35;98826.13;;;13.26;88.37
71059;BME280;70265;47.576;19.270;2023-05-29T03:18:39;98820.19;;;13.24;88.46
71059;BME280;70265;47.576;19.270;2023-05-29T03:19:43;98824.47;;;13.25;88.70
71059;BME280;70265;47.576;19.270;2023-05-29T03:20:45;98830.72;;;13.24;88.93
71059;BME280;70265;47.576;19.270;2023-05-29T03:21:48;98820.03;;;13.25;88.58
71059;BME280;70265;47.576;19.270;2023-05-29T03:22:49;98813.13;;;13.24;88.59
71059;BME280;70265;47.576;19.270;2023-05-29T03:23:53;98823.84;;;13.23;88.84
71059;BME280;70265;47.576;19.270;2023-05-29T03:24:54;98821.84;;;13.25;88.95
71059;BME280;70265;47.576;19.270;2023-05-29T03:25:58;98824.31;;;13.27;88.83
71059;BME280;70265;47.576;19.270;2023-05-29T03:26:59;98819.22;;;13.25;88.85
71059;BME280;70265;47.576;19.270;2023-05-29T03:28:03;98824.97;;;13.29;88.88
71059;BME280;70265;47.576;19.270;2023-05-29T03:29:07;98822.97;;;13.31;88.91
71059;BME280;70265;47.576;19.270;2023-05-29T03:30:09;98826.78;;;13.28;88.85
71059;BME280;70265;47.576;19.270;2023-05-29T03:31:13;98824.97;;;13.29;88.93
71059;BME280;70265;47.576;19.270;2023-05-29T03:32:14;98819.84;;;13.27;88.65
71059;BME280;70265;47.576;19.270;2023-05-29T03:33:20;98827.75;;;13.27;89.05
71059;BME280;70265;47.576;19.270;2023-05-29T03:34:21;98831.88;;;13.30;88.91
71059;BME280;70265;47.576;19.270;2023-05-29T03:35:25;98821.50;;;13.28;88.57
71059;BME280;70265;47.576;19.270;2023-05-29T03:36:26;98834.16;;;13.33;88.50
71059;BME280;70265;47.576;19.270;2023-05-29T03:37:30;98834.50;;;13.30;89.11
71059;BME280;70265;47.576;19.270;2023-05-29T03:38:34;98838.25;;;13.35;88.62
71059;BME280;70265;47.576;19.270;2023-05-29T03:39:35;98842.56;;;13.36;88.60
71059;BME280;70265;47.576;19.270;2023-05-29T03:40:39;98840.06;;;13.35;88.74
71059;BME280;70265;47.576;19.270;2023-05-29T03:41:40;98841.72;;;13.36;89.06
71059;BME280;70265;47.576;19.270;2023-05-29T03:42:44;98845.19;;;13.36;89.07
71059;BME280;70265;47.576;19.270;2023-05-29T03:43:47;98842.38;;;13.38;89.17
71059;BME280;70265;47.576;19.270;2023-05-29T03:44:48;98843.38;;;13.37;89.32
71059;BME280;70265;47.576;19.270;2023-05-29T03:45:52;98846.00;;;13.37;89.44
71059;BME280;70265;47.576;19.270;2023-05-29T03:46:54;98850.94;;;13.40;89.27
71059;BME280;70265;47.576;19.270;2023-05-29T03:47:57;98846.50;;;13.40;89.09
71059;BME280;70265;47.576;19.270;2023-05-29T03:49:01;98842.22;;;13.39;89.09
71059;BME280;70265;47.576;19.270;2023-05-29T03:50:06;98852.41;;;13.42;89.21
71059;BME280;70265;47.576;19.270;2023-05-29T03:51:08;98850.41;;;13.44;89.41
71059;BME280;70265;47.576;19.270;2023-05-29T03:52:11;98843.50;;;13.43;89.23
71059;BME280;70265;47.576;19.270;2023-05-29T03:53:13;98857.97;;;13.47;88.94
71059;BME280;70265;47.576;19.270;2023-05-29T03:54:16;98852.19;;;13.52;88.94
71059;BME280;70265;47.576;19.270;2023-05-29T03:55:18;98851.22;;;13.53;89.17
71059;BME280;70265;47.576;19.270;2023-05-29T03:56:22;98856.47;;;13.53;89.07
71059;BME280;70265;47.576;19.270;2023-05-29T03:57:23;98857.59;;;13.58;88.87
71059;BME280;70265;47.576;19.270;2023-05-29T03:58:27;98855.78;;;13.59;89.77
71059;BME280;70265;47.576;19.270;2023-05-29T03:59:28;98856.63;;;13.59;89.76
71059;BME280;70265;47.576;19.270;2023-05-29T04:00:32;98855.44;;;13.62;89.47
71059;BME280;70265;47.576;19.270;2023-05-29T04:01:33;98855.44;;;13.62;89.38
71059;BME280;70265;47.576;19.270;2023-05-29T04:02:37;98854.75;;;13.68;89.24
71059;BME280;70265;47.576;19.270;2023-05-29T04:03:39;98853.59;;;13.70;88.98
71059;BME280;70265;47.576;19.270;2023-05-29T04:04:47;98855.22;;;13.71;89.16
71059;BME280;70265;47.576;19.270;2023-05-29T04:05:49;98843.53;;;13.74;89.13
71059;BME280;70265;47.576;19.270;2023-05-29T04:06:52;98847.78;;;13.75;89.46
71059;BME280;70265;47.576;19.270;2023-05-29T04:07:55;98854.09;;;13.74;89.17
71059;BME280;70265;47.576;19.270;2023-05-29T04:08:59;98849.59;;;13.74;89.30
71059;BME280;70265;47.576;19.270;2023-05-29T04:10:00;98849.28;;;13.77;89.29
71059;BME280;70265;47.576;19.270;2023-05-29T04:11:04;98853.53;;;13.78;88.85
71059;BME280;70265;47.576;19.270;2023-05-29T04:12:05;98850.56;;;13.82;89.25
71059;BME280;70265;47.576;19.270;2023-05-29T04:13:09;98850.22;;;13.85;89.44
71059;BME280;70265;47.576;19.270;2023-05-29T04:14:10;98856.78;;;13.89;88.93
71059;BME280;70265;47.576;19.270;2023-05-29T04:15:14;98856.44;;;13.92;89.25
71059;BME280;70265;47.576;19.270;2023-05-29T04:16:15;98853.63;;;13.93;88.79
71059;BME280;70265;47.576;19.270;2023-05-29T04:17:19;98860.03;;;13.99;88.66
71059;BME280;70265;47.576;19.270;2023-05-29T04:18:20;98858.06;;;14.01;88.34
71059;BME280;70265;47.576;19.270;2023-05-29T04:19:24;98858.34;;;14.06;88.57
71059;BME280;70265;47.576;19.270;2023-05-29T04:20:28;98856.00;;;14.11;88.21
71059;BME280;70265;47.576;19.270;2023-05-29T04:21:32;98854.34;;;14.10;88.14
71059;BME280;70265;47.576;19.270;2023-05-29T04:22:33;98854.00;;;14.13;88.83
71059;BME280;70265;47.576;19.270;2023-05-29T04:23:37;98864.88;;;14.18;88.40
71059;BME280;70265;47.576;19.270;2023-05-29T04:24:38;98861.88;;;14.21;88.64
71059;BME280;70265;47.576;19.270;2023-05-29T04:25:42;98865.81;;;14.25;89.17
71059;BME280;70265;47.576;19.270;2023-05-29T04:26:44;98865.25;;;14.29;88.29
71059;BME280;70265;47.576;19.270;2023-05-29T04:27:48;98858.84;;;14.32;89.45
71059;BME280;70265;47.576;19.270;2023-05-29T04:28:49;98870.53;;;14.38;88.33
71059;BME280;70265;47.576;19.270;2023-05-29T04:29:53;98867.53;;;14.41;88.11
71059;BME280;70265;47.576;19.270;2023-05-29T04:30:54;98865.53;;;14.43;88.02
71059;BME280;70265;47.576;19.270;2023-05-29T04:31:58;98860.53;;;14.48;87.87
71059;BME280;70265;47.576;19.270;2023-05-29T04:33:03;98857.56;;;14.51;88.21
71059;BME280;70265;47.576;19.270;2023-05-29T04:34:06;98866.56;;;14.56;87.94
71059;BME280;70265;47.576;19.270;2023-05-29T04:35:09;98863.25;;;14.62;87.77
71059;BME280;70265;47.576;19.270;2023-05-29T04:36:16;98871.78;;;14.64;88.24
71059;BME280;70265;47.576;19.270;2023-05-29T04:37:17;98855.59;;;14.67;87.88
71059;BME280;70265;47.576;19.270;2023-05-29T04:38:22;98863.63;;;14.74;87.62
71059;BME280;70265;47.576;19.270;2023-05-29T04:39:25;98864.06;;;14.77;87.40
71059;BME280;70265;47.576;19.270;2023-05-29T04:40:29;98865.53;;;14.80;87.24
71059;BME280;70265;47.576;19.270;2023-05-29T04:41:32;98869.28;;;14.86;87.16
71059;BME280;70265;47.576;19.270;2023-05-29T04:42:36;98871.22;;;14.92;87.29
71059;BME280;70265;47.576;19.270;2023-05-29T04:43:40;98866.56;;;14.94;87.74
71059;BME280;70265;47.576;19.270;2023-05-29T04:44:41;98868.50;;;15.00;87.23
71059;BME280;70265;47.576;19.270;2023-05-29T04:45:45;98862.84;;;15.03;86.62
71059;BME280;70265;47.576;19.270;2023-05-29T04:46:46;98865.50;;;15.03;86.25
71059;BME280;70265;47.576;19.270;2023-05-29T04:47:52;98867.78;;;15.06;86.61
71059;BME280;70265;47.576;19.270;2023-05-29T04:48:55;98864.59;;;15.10;85.81
71059;BME280;70265;47.576;19.270;2023-05-29T04:49:59;98864.78;;;15.09;86.00
71059;BME280;70265;47.576;19.270;2023-05-29T04:51:00;98866.69;;;15.15;86.54
71059;BME280;70265;47.576;19.270;2023-05-29T04:52:06;98869.16;;;15.16;85.36
71059;BME280;70265;47.576;19.270;2023-05-29T04:53:10;98865.50;;;15.17;84.77
71059;BME280;70265;47.576;19.270;2023-05-29T04:54:11;98870.53;;;15.27;85.00
71059;BME280;70265;47.576;19.270;2023-05-29T04:55:15;98872.34;;;15.26;84.10
71059;BME280;70265;47.576;19.270;2023-05-29T04:56:17;98871.97;;;15.29;84.44
71059;BME280;70265;47.576;19.270;2023-05-29T04:57:21;98868.16;;;15.32;84.19
71059;BME280;70265;47.576;19.270;2023-05-29T04:58:22;98865.78;;;15.37;83.51
71059;BME280;70265;47.576;19.270;2023-05-29T04:59:25;98869.50;;;15.43;83.22
71059;BME280;70265;47.576;19.270;2023-05-29T05:00:27;98865.69;;;15.45;83.42
71059;BME280;70265;47.576;19.270;2023-05-29T05:01:30;98868.63;;;15.50;83.12
71059;BME280;70265;47.576;19.270;2023-05-29T05:02:34;98872.56;;;15.54;83.19
71059;BME280;70265;47.576;19.270;2023-05-29T05:03:38;98868.53;;;15.58;82.76
71059;BME280;70265;47.576;19.270;2023-05-29T05:04:42;98862.53;;;15.64;82.86
71059;BME280;70265;47.576;19.270;2023-05-29T05:05:43;98864.13;;;15.65;80.75
71059;BME280;70265;47.576;19.270;2023-05-29T05:06:47;98870.53;;;15.71;81.14
71059;BME280;70265;47.576;19.270;2023-05-29T05:07:50;98857.94;;;15.73;81.92
71059;BME280;70265;47.576;19.270;2023-05-29T05:08:54;98864.94;;;15.81;80.38
71059;BME280;70265;47.576;19.270;2023-05-29T05:09:55;98857.47;;;15.84;81.21
71059;BME280;70265;47.576;19.270;2023-05-29T05:11:00;98868.13;;;15.91;80.80
71059;BME280;70265;47.576;19.270;2023-05-29T05:12:04;98872.22;;;15.93;80.33
71059;BME280;70265;47.576;19.270;2023-05-29T05:13:06;98865.16;;;16.00;80.91
71059;BME280;70265;47.576;19.270;2023-05-29T05:14:11;98865.81;;;16.02;81.01
71059;BME280;70265;47.576;19.270;2023-05-29T05:15:20;98864.25;;;16.08;80.73
71059;BME280;70265;47.576;19.270;2023-05-29T05:16:24;98866.50;;;16.11;80.71
71059;BME280;70265;47.576;19.270;2023-05-29T05:17:25;98874.72;;;16.16;79.99
71059;BME280;70265;47.576;19.270;2023-05-29T05:18:28;98870.50;;;16.21;80.05
71059;BME280;70265;47.576;19.270;2023-05-29T05:19:30;98874.84;;;16.29;80.47
71059;BME280;70265;47.576;19.270;2023-05-29T05:20:33;98873.09;;;16.36;80.48
71059;BME280;70265;47.576;19.270;2023-05-29T05:21:35;98874.16;;;16.42;80.58
71059;BME280;70265;47.576;19.270;2023-05-29T05:22:39;98876.25;;;16.46;80.33
71059;BME280;70265;47.576;19.270;2023-05-29T05:23:43;98876.09;;;16.54;81.43
71059;BME280;70265;47.576;19.270;2023-05-29T05:24:46;98877.81;;;16.62;80.39
71059;BME280;70265;47.576;19.270;2023-05-29T05:25:47;98881.34;;;16.69;80.99
71059;BME280;70265;47.576;19.270;2023-05-29T05:26:51;98874.72;;;16.79;79.75
71059;BME280;70265;47.576;19.270;2023-05-29T05:27:52;98880.25;;;16.85;79.29
71059;BME280;70265;47.576;19.270;2023-05-29T05:28:56;98883.97;;;16.90;79.31
71059;BME280;70265;47.576;19.270;2023-05-29T05:29:57;98876.75;;;17.05;80.39
71059;BME280;70265;47.576;19.270;2023-05-29T05:31:01;98879.94;;;17.28;79.79
71059;BME280;70265;47.576;19.270;2023-05-29T05:32:03;98879.94;;;17.28;77.09